Lobo

Go HERE for most recent data if this page is not up to date.

Jump to table bottom
Date/Time Temp deg F RH % 24 Hr Snow (in) Snow Depth (in) H2O (in)
12/02 22:00 3.9 49 0.1 36.2 0.00
12/02 21:00 3.3 52 0.0 36.2 0.00
12/02 20:00 2.8 56 0.0 36.4 0.00
12/02 19:00 2.3 68 0.1 36.5 0.00
12/02 18:00 2.3 64 0.0 36.8 0.00
12/02 17:00 3.5 61 0.0 36.6 0.00
12/02 16:00 5.6 59 2.5 36.6 0.00
12/02 15:00 6.5 51 2.6 36.2 0.00
12/02 14:00 6.7 57 2.6 36.5 0.00
12/02 13:00 6.5 58 2.6 36.9 0.00
12/02 12:00 5.3 65 2.7 33.7 0.00
12/02 11:00 4.5 67 2.8 33.8 0.00
12/02 10:00 3.9 67 2.8 36.1 0.00
12/02 09:00 2.5 72 3.0 37.1 0.00
12/02 08:00 1.8 72 3.0 36.7 0.00
12/02 07:00 1.6 70 3.0 36.3 0.00
12/02 06:00 2.2 72 2.9 37.9 0.00
12/02 05:00 3.5 68 2.9 37.9 0.00
12/02 04:00 4.9 56 3.0 36.6 0.00
12/02 03:00 6.1 53 3.0 37.4 0.00
12/02 02:00 8.7 68 2.8 37.5 0.01
12/02 01:00 10.9 75 2.8 36.5 0.00
12/02 00:00 12.8 78 3.0 38.3 0.01
12/01 23:00 15.0 78 3.1 36.5 0.04
12/01 22:00 17.8 87 2.8 37.1 0.10
12/01 21:00 20.2 89 -0.0 34.9 0.00
12/01 20:00 20.3 82 0.0 36.0 0.00
12/01 19:00 20.8 79 0.0 36.2 0.00
12/01 18:00 21.1 74 0.0 37.2 0.00
12/01 17:00 20.9 73 0.0 36.1 0.00
12/01 16:00 21.1 75 0.0 35.2 0.00
12/01 15:00 21.1 72 0.0 34.7 0.00
12/01 14:00 21.1 74 0.0 34.7 0.00
12/01 13:00 20.4 77 0.0 34.8 0.00
12/01 12:00 20.6 78 0.0 34.8 0.00
12/01 11:00 19.7 75 0.0 35.0 0.00
12/01 10:00 19.6 82 0.0 35.2 0.00
12/01 09:00 20.1 74 0.0 34.9 0.00
12/01 08:00 19.6 79 0.0 34.8 0.00
12/01 07:00 20.0 76 0.0 34.7 0.00
12/01 06:00 19.8 76 0.0 34.9 0.00
12/01 05:00 18.9 81 0.0 34.4 0.00
12/01 04:00 19.2 80 0.0 34.5 0.00
12/01 03:00 18.9 74 0.0 34.6 0.00
12/01 02:00 18.6 78 0.0 34.7 0.00
12/01 01:00 18.3 73 0.0 34.9 0.00
12/01 00:00 18.3 71 0.0 35.0 0.00
.